Terminal Aerodrome Forecast
Issued by NWS

Home | Current Version | Previous Version | Text Only | Print | Product List | Glossary On
Versions: 1 2 3 4 5 6 7 8 9 10 11 12 13 14 15 16 17 18 19
000
FTUS46 KPDT 290700 AAA
TAFDLS
TAF AMD
KDLS 290707Z 2907/3006 31006KT P6SM -SHRA SCT030 OVC035
     FM291200 30004KT 5SM -SN BR BKN020 OVC040
      TEMPO 2913/2916 3SM -SN BR SCT005 BKN011
     FM291800 03010KT P6SM SCT040 BKN100
     FM300000 09011KT P6SM FEW050=

USA.gov is the U.S. government's official web portal to all federal, state and local government web resources and services.